sensor_id;sensor_type;location;lat;lon;timestamp;P1;P2;P0
70255;PMS5003;57669;52.624;-1.688;2022-09-04T00:01:48;6;6;
70255;PMS5003;57669;52.624;-1.688;2022-09-04T00:04:14;7;6;
70255;PMS5003;57669;52.624;-1.688;2022-09-04T00:06:39;7;7;
70255;PMS5003;57669;52.624;-1.688;2022-09-04T00:09:07;9;8;
70255;PMS5003;57669;52.624;-1.688;2022-09-04T00:13:56;7;7;
70255;PMS5003;57669;52.624;-1.688;2022-09-04T00:16:21;13;11;
70255;PMS5003;57669;52.624;-1.688;2022-09-04T00:18:48;6;6;
70255;PMS5003;57669;52.624;-1.688;2022-09-04T00:21:13;6;5;
70255;PMS5003;57669;52.624;-1.688;2022-09-04T00:23:38;7;7;
70255;PMS5003;57669;52.624;-1.688;2022-09-04T00:26:05;7;7;
70255;PMS5003;57669;52.624;-1.688;2022-09-04T00:28:31;9;8;
70255;PMS5003;57669;52.624;-1.688;2022-09-04T00:30:55;8;8;
70255;PMS5003;57669;52.624;-1.688;2022-09-04T00:33:21;6;6;
70255;PMS5003;57669;52.624;-1.688;2022-09-04T00:35:46;8;8;
70255;PMS5003;57669;52.624;-1.688;2022-09-04T00:38:12;8;8;
70255;PMS5003;57669;52.624;-1.688;2022-09-04T00:43:09;8;8;
70255;PMS5003;57669;52.624;-1.688;2022-09-04T00:45:32;7;7;
70255;PMS5003;57669;52.624;-1.688;2022-09-04T00:47:59;7;7;
70255;PMS5003;57669;52.624;-1.688;2022-09-04T00:50:27;6;6;
70255;PMS5003;57669;52.624;-1.688;2022-09-04T00:52:53;6;6;
70255;PMS5003;57669;52.624;-1.688;2022-09-04T00:55:16;8;8;
70255;PMS5003;57669;52.624;-1.688;2022-09-04T01:00:06;6;6;
70255;PMS5003;57669;52.624;-1.688;2022-09-04T01:02:30;9;9;
70255;PMS5003;57669;52.624;-1.688;2022-09-04T01:04:55;10;9;
70255;PMS5003;57669;52.624;-1.688;2022-09-04T01:07:24;8;8;
70255;PMS5003;57669;52.624;-1.688;2022-09-04T01:09:50;9;8;
70255;PMS5003;57669;52.624;-1.688;2022-09-04T01:12:12;8;7;
70255;PMS5003;57669;52.624;-1.688;2022-09-04T01:14:37;9;9;
70255;PMS5003;57669;52.624;-1.688;2022-09-04T01:17:03;8;7;
70255;PMS5003;57669;52.624;-1.688;2022-09-04T01:19:31;9;9;
70255;PMS5003;57669;52.624;-1.688;2022-09-04T01:21:57;12;9;
70255;PMS5003;57669;52.624;-1.688;2022-09-04T01:24:23;12;11;
70255;PMS5003;57669;52.624;-1.688;2022-09-04T01:26:45;8;8;
70255;PMS5003;57669;52.624;-1.688;2022-09-04T01:29:14;6;6;
70255;PMS5003;57669;52.624;-1.688;2022-09-04T01:31:37;6;6;
70255;PMS5003;57669;52.624;-1.688;2022-09-04T01:34:04;9;9;
70255;PMS5003;57669;52.624;-1.688;2022-09-04T01:36:31;9;9;
70255;PMS5003;57669;52.624;-1.688;2022-09-04T01:38:53;9;7;
70255;PMS5003;57669;52.624;-1.688;2022-09-04T01:41:19;11;9;
70255;PMS5003;57669;52.624;-1.688;2022-09-04T01:43:44;7;7;
70255;PMS5003;57669;52.624;-1.688;2022-09-04T01:46:14;11;10;
70255;PMS5003;57669;52.624;-1.688;2022-09-04T01:48:37;8;8;
70255;PMS5003;57669;52.624;-1.688;2022-09-04T01:51:02;8;8;
70255;PMS5003;57669;52.624;-1.688;2022-09-04T01:53:26;7;7;
70255;PMS5003;57669;52.624;-1.688;2022-09-04T01:55:54;8;8;
70255;PMS5003;57669;52.624;-1.688;2022-09-04T01:58:18;8;8;
70255;PMS5003;57669;52.624;-1.688;2022-09-04T02:00:51;9;8;
70255;PMS5003;57669;52.624;-1.688;2022-09-04T02:03:09;8;8;
70255;PMS5003;57669;52.624;-1.688;2022-09-04T02:05:38;8;8;
70255;PMS5003;57669;52.624;-1.688;2022-09-04T02:08:03;10;9;
70255;PMS5003;57669;52.624;-1.688;2022-09-04T02:10:27;7;7;
70255;PMS5003;57669;52.624;-1.688;2022-09-04T02:12:53;9;9;
70255;PMS5003;57669;52.624;-1.688;2022-09-04T02:15:20;10;10;
70255;PMS5003;57669;52.624;-1.688;2022-09-04T02:17:44;12;9;
70255;PMS5003;57669;52.624;-1.688;2022-09-04T02:20:11;10;9;
70255;PMS5003;57669;52.624;-1.688;2022-09-04T02:22:36;10;10;
70255;PMS5003;57669;52.624;-1.688;2022-09-04T02:25:01;7;7;
70255;PMS5003;57669;52.624;-1.688;2022-09-04T02:27:26;10;9;
70255;PMS5003;57669;52.624;-1.688;2022-09-04T02:29:52;11;11;
70255;PMS5003;57669;52.624;-1.688;2022-09-04T02:32:17;9;9;
70255;PMS5003;57669;52.624;-1.688;2022-09-04T02:34:43;9;9;
70255;PMS5003;57669;52.624;-1.688;2022-09-04T02:37:09;11;11;
70255;PMS5003;57669;52.624;-1.688;2022-09-04T02:39:36;11;11;
70255;PMS5003;57669;52.624;-1.688;2022-09-04T02:42:01;13;11;
70255;PMS5003;57669;52.624;-1.688;2022-09-04T02:44:28;11;11;
70255;PMS5003;57669;52.624;-1.688;2022-09-04T02:46:53;13;13;
70255;PMS5003;57669;52.624;-1.688;2022-09-04T02:49:18;12;12;
70255;PMS5003;57669;52.624;-1.688;2022-09-04T02:54:09;11;11;
70255;PMS5003;57669;52.624;-1.688;2022-09-04T02:56:36;15;15;
70255;PMS5003;57669;52.624;-1.688;2022-09-04T02:59:05;15;14;
70255;PMS5003;57669;52.624;-1.688;2022-09-04T03:01:25;12;12;
70255;PMS5003;57669;52.624;-1.688;2022-09-04T03:03:50;15;13;
70255;PMS5003;57669;52.624;-1.688;2022-09-04T03:06:16;17;16;
70255;PMS5003;57669;52.624;-1.688;2022-09-04T03:08:42;14;14;
70255;PMS5003;57669;52.624;-1.688;2022-09-04T03:11:07;14;14;
70255;PMS5003;57669;52.624;-1.688;2022-09-04T03:13:32;15;15;
70255;PMS5003;57669;52.624;-1.688;2022-09-04T03:16:02;16;15;
70255;PMS5003;57669;52.624;-1.688;2022-09-04T03:18:23;21;19;
70255;PMS5003;57669;52.624;-1.688;2022-09-04T03:20:49;21;18;
70255;PMS5003;57669;52.624;-1.688;2022-09-04T03:23:14;16;16;
70255;PMS5003;57669;52.624;-1.688;2022-09-04T03:25:44;18;16;
70255;PMS5003;57669;52.624;-1.688;2022-09-04T03:28:03;21;19;
70255;PMS5003;57669;52.624;-1.688;2022-09-04T03:30:29;23;23;
70255;PMS5003;57669;52.624;-1.688;2022-09-04T03:32:58;20;17;
70255;PMS5003;57669;52.624;-1.688;2022-09-04T03:35:21;19;19;
70255;PMS5003;57669;52.624;-1.688;2022-09-04T03:37:50;22;22;
70255;PMS5003;57669;52.624;-1.688;2022-09-04T03:42:39;18;18;
70255;PMS5003;57669;52.624;-1.688;2022-09-04T03:45:04;21;20;
70255;PMS5003;57669;52.624;-1.688;2022-09-04T03:49:53;17;17;
70255;PMS5003;57669;52.624;-1.688;2022-09-04T03:52:19;19;19;
70255;PMS5003;57669;52.624;-1.688;2022-09-04T03:54:47;24;23;
70255;PMS5003;57669;52.624;-1.688;2022-09-04T03:57:10;25;23;
70255;PMS5003;57669;52.624;-1.688;2022-09-04T03:59:37;19;17;
70255;PMS5003;57669;52.624;-1.688;2022-09-04T04:01:59;22;22;
70255;PMS5003;57669;52.624;-1.688;2022-09-04T04:06:50;22;21;
70255;PMS5003;57669;52.624;-1.688;2022-09-04T04:09:18;24;23;
70255;PMS5003;57669;52.624;-1.688;2022-09-04T04:11:44;24;23;
70255;PMS5003;57669;52.624;-1.688;2022-09-04T04:16:33;22;22;
70255;PMS5003;57669;52.624;-1.688;2022-09-04T04:18:58;23;23;
70255;PMS5003;57669;52.624;-1.688;2022-09-04T04:21:24;26;25;
70255;PMS5003;57669;52.624;-1.688;2022-09-04T04:26:13;20;20;
70255;PMS5003;57669;52.624;-1.688;2022-09-04T04:28:41;22;22;
70255;PMS5003;57669;52.624;-1.688;2022-09-04T04:31:04;20;20;
70255;PMS5003;57669;52.624;-1.688;2022-09-04T04:33:31;28;27;
70255;PMS5003;57669;52.624;-1.688;2022-09-04T04:35:55;24;24;
70255;PMS5003;57669;52.624;-1.688;2022-09-04T04:38:23;22;21;
70255;PMS5003;57669;52.624;-1.688;2022-09-04T04:43:10;27;26;
70255;PMS5003;57669;52.624;-1.688;2022-09-04T04:45:35;26;26;
70255;PMS5003;57669;52.624;-1.688;2022-09-04T04:48:11;25;24;
70255;PMS5003;57669;52.624;-1.688;2022-09-04T04:50:26;24;23;
70255;PMS5003;57669;52.624;-1.688;2022-09-04T04:52:52;25;25;
70255;PMS5003;57669;52.624;-1.688;2022-09-04T04:57:45;26;26;
70255;PMS5003;57669;52.624;-1.688;2022-09-04T05:00:09;25;24;
70255;PMS5003;57669;52.624;-1.688;2022-09-04T05:02:34;29;28;
70255;PMS5003;57669;52.624;-1.688;2022-09-04T05:04:58;32;31;
70255;PMS5003;57669;52.624;-1.688;2022-09-04T05:07:25;28;27;
70255;PMS5003;57669;52.624;-1.688;2022-09-04T05:09:50;28;28;
70255;PMS5003;57669;52.624;-1.688;2022-09-04T05:12:16;28;28;
70255;PMS5003;57669;52.624;-1.688;2022-09-04T05:17:09;26;26;
70255;PMS5003;57669;52.624;-1.688;2022-09-04T05:19:32;32;30;
70255;PMS5003;57669;52.624;-1.688;2022-09-04T05:21:58;28;28;
70255;PMS5003;57669;52.624;-1.688;2022-09-04T05:24:24;28;28;
70255;PMS5003;57669;52.624;-1.688;2022-09-04T05:26:50;29;27;
70255;PMS5003;57669;52.624;-1.688;2022-09-04T05:29:15;28;25;
70255;PMS5003;57669;52.624;-1.688;2022-09-04T05:31:41;27;27;
70255;PMS5003;57669;52.624;-1.688;2022-09-04T05:34:06;30;28;
70255;PMS5003;57669;52.624;-1.688;2022-09-04T05:36:33;29;28;
70255;PMS5003;57669;52.624;-1.688;2022-09-04T05:38:57;27;27;
70255;PMS5003;57669;52.624;-1.688;2022-09-04T05:41:23;30;29;
70255;PMS5003;57669;52.624;-1.688;2022-09-04T05:43:49;28;27;
70255;PMS5003;57669;52.624;-1.688;2022-09-04T05:46:13;33;33;
70255;PMS5003;57669;52.624;-1.688;2022-09-04T05:48:40;35;34;
70255;PMS5003;57669;52.624;-1.688;2022-09-04T05:51:05;32;31;
70255;PMS5003;57669;52.624;-1.688;2022-09-04T05:53:31;29;28;
70255;PMS5003;57669;52.624;-1.688;2022-09-04T05:55:57;31;30;
70255;PMS5003;57669;52.624;-1.688;2022-09-04T05:58:25;28;28;
70255;PMS5003;57669;52.624;-1.688;2022-09-04T06:00:45;29;28;
70255;PMS5003;57669;52.624;-1.688;2022-09-04T06:05:39;29;29;
70255;PMS5003;57669;52.624;-1.688;2022-09-04T06:08:05;28;28;
70255;PMS5003;57669;52.624;-1.688;2022-09-04T06:10:29;30;30;
70255;PMS5003;57669;52.624;-1.688;2022-09-04T06:12:58;29;27;
70255;PMS5003;57669;52.624;-1.688;2022-09-04T06:15:20;35;34;
70255;PMS5003;57669;52.624;-1.688;2022-09-04T06:17:47;29;28;
70255;PMS5003;57669;52.624;-1.688;2022-09-04T06:20:14;34;33;
70255;PMS5003;57669;52.624;-1.688;2022-09-04T06:22:38;31;29;
70255;PMS5003;57669;52.624;-1.688;2022-09-04T06:25:04;29;28;
70255;PMS5003;57669;52.624;-1.688;2022-09-04T06:27:29;33;32;
70255;PMS5003;57669;52.624;-1.688;2022-09-04T06:29:54;28;28;
70255;PMS5003;57669;52.624;-1.688;2022-09-04T06:34:44;29;28;
70255;PMS5003;57669;52.624;-1.688;2022-09-04T06:37:08;33;32;
70255;PMS5003;57669;52.624;-1.688;2022-09-04T06:39:36;35;34;
70255;PMS5003;57669;52.624;-1.688;2022-09-04T06:42:00;26;26;
70255;PMS5003;57669;52.624;-1.688;2022-09-04T06:44:23;28;27;
70255;PMS5003;57669;52.624;-1.688;2022-09-04T06:46:47;31;28;
70255;PMS5003;57669;52.624;-1.688;2022-09-04T06:49:13;23;23;
70255;PMS5003;57669;52.624;-1.688;2022-09-04T06:51:45;23;23;
70255;PMS5003;57669;52.624;-1.688;2022-09-04T06:54:04;31;30;
70255;PMS5003;57669;52.624;-1.688;2022-09-04T06:56:32;32;31;
70255;PMS5003;57669;52.624;-1.688;2022-09-04T06:58:58;26;26;
70255;PMS5003;57669;52.624;-1.688;2022-09-04T07:01:22;23;23;
70255;PMS5003;57669;52.624;-1.688;2022-09-04T07:03:49;31;29;
70255;PMS5003;57669;52.624;-1.688;2022-09-04T07:06:11;34;34;
70255;PMS5003;57669;52.624;-1.688;2022-09-04T07:11:05;26;23;
70255;PMS5003;57669;52.624;-1.688;2022-09-04T07:13:34;23;23;
70255;PMS5003;57669;52.624;-1.688;2022-09-04T07:18:23;27;26;
70255;PMS5003;57669;52.624;-1.688;2022-09-04T07:20:45;28;26;
70255;PMS5003;57669;52.624;-1.688;2022-09-04T07:23:15;28;26;
70255;PMS5003;57669;52.624;-1.688;2022-09-04T07:25:38;24;24;
70255;PMS5003;57669;52.624;-1.688;2022-09-04T07:28:06;23;22;
70255;PMS5003;57669;52.624;-1.688;2022-09-04T07:30:26;24;23;
70255;PMS5003;57669;52.624;-1.688;2022-09-04T07:32:53;26;26;
70255;PMS5003;57669;52.624;-1.688;2022-09-04T07:35:17;22;21;
70255;PMS5003;57669;52.624;-1.688;2022-09-04T07:37:43;22;22;
70255;PMS5003;57669;52.624;-1.688;2022-09-04T07:40:08;23;22;
70255;PMS5003;57669;52.624;-1.688;2022-09-04T07:42:34;21;19;
70255;PMS5003;57669;52.624;-1.688;2022-09-04T07:45:00;25;24;
70255;PMS5003;57669;52.624;-1.688;2022-09-04T07:47:25;18;18;
70255;PMS5003;57669;52.624;-1.688;2022-09-04T07:49:51;17;16;
70255;PMS5003;57669;52.624;-1.688;2022-09-04T07:52:16;16;14;
70255;PMS5003;57669;52.624;-1.688;2022-09-04T07:54:44;17;17;
70255;PMS5003;57669;52.624;-1.688;2022-09-04T07:57:12;17;17;
70255;PMS5003;57669;52.624;-1.688;2022-09-04T07:59:35;17;16;
70255;PMS5003;57669;52.624;-1.688;2022-09-04T08:02:00;13;13;
70255;PMS5003;57669;52.624;-1.688;2022-09-04T08:04:26;12;11;
70255;PMS5003;57669;52.624;-1.688;2022-09-04T08:06:48;14;13;
70255;PMS5003;57669;52.624;-1.688;2022-09-04T08:09:21;17;15;
70255;PMS5003;57669;52.624;-1.688;2022-09-04T08:16:30;11;10;
70255;PMS5003;57669;52.624;-1.688;2022-09-04T08:21:22;13;12;
70255;PMS5003;57669;52.624;-1.688;2022-09-04T08:26:12;11;11;
70255;PMS5003;57669;52.624;-1.688;2022-09-04T08:28:41;13;13;
70255;PMS5003;57669;52.624;-1.688;2022-09-04T08:31:03;11;10;
70255;PMS5003;57669;52.624;-1.688;2022-09-04T08:33:31;11;10;
70255;PMS5003;57669;52.624;-1.688;2022-09-04T08:35:55;9;9;
70255;PMS5003;57669;52.624;-1.688;2022-09-04T08:38:25;11;10;
70255;PMS5003;57669;52.624;-1.688;2022-09-04T08:40:52;11;10;
70255;PMS5003;57669;52.624;-1.688;2022-09-04T08:43:15;9;9;
70255;PMS5003;57669;52.624;-1.688;2022-09-04T08:48:08;12;10;
70255;PMS5003;57669;52.624;-1.688;2022-09-04T08:50:31;10;10;
70255;PMS5003;57669;52.624;-1.688;2022-09-04T09:00:09;8;8;
70255;PMS5003;57669;52.624;-1.688;2022-09-04T09:05:06;10;9;
70255;PMS5003;57669;52.624;-1.688;2022-09-04T09:14:50;8;8;
70255;PMS5003;57669;52.624;-1.688;2022-09-04T09:17:10;10;9;
70255;PMS5003;57669;52.624;-1.688;2022-09-04T09:19:39;8;8;
70255;PMS5003;57669;52.624;-1.688;2022-09-04T09:22:06;8;8;
70255;PMS5003;57669;52.624;-1.688;2022-09-04T09:26:53;10;9;
70255;PMS5003;57669;52.624;-1.688;2022-09-04T09:29:19;7;7;
70255;PMS5003;57669;52.624;-1.688;2022-09-04T09:34:13;8;8;
70255;PMS5003;57669;52.624;-1.688;2022-09-04T09:41:30;11;10;
70255;PMS5003;57669;52.624;-1.688;2022-09-04T09:46:20;7;7;
70255;PMS5003;57669;52.624;-1.688;2022-09-04T09:51:15;8;6;
70255;PMS5003;57669;52.624;-1.688;2022-09-04T09:53:38;8;7;
70255;PMS5003;57669;52.624;-1.688;2022-09-04T10:00:52;8;8;
70255;PMS5003;57669;52.624;-1.688;2022-09-04T10:08:12;8;6;
70255;PMS5003;57669;52.624;-1.688;2022-09-04T10:15:27;8;7;
70255;PMS5003;57669;52.624;-1.688;2022-09-04T10:17:52;7;7;
70255;PMS5003;57669;52.624;-1.688;2022-09-04T10:30:01;5;5;
70255;PMS5003;57669;52.624;-1.688;2022-09-04T10:32:26;5;5;
70255;PMS5003;57669;52.624;-1.688;2022-09-04T10:34:54;6;6;
70255;PMS5003;57669;52.624;-1.688;2022-09-04T10:37:18;7;5;
70255;PMS5003;57669;52.624;-1.688;2022-09-04T10:39:41;6;5;
70255;PMS5003;57669;52.624;-1.688;2022-09-04T10:42:07;6;5;
70255;PMS5003;57669;52.624;-1.688;2022-09-04T10:46:59;6;6;
70255;PMS5003;57669;52.624;-1.688;2022-09-04T10:51:52;6;6;
70255;PMS5003;57669;52.624;-1.688;2022-09-04T10:56:40;9;7;
70255;PMS5003;57669;52.624;-1.688;2022-09-04T10:59:06;4;3;
70255;PMS5003;57669;52.624;-1.688;2022-09-04T11:01:36;7;7;
70255;PMS5003;57669;52.624;-1.688;2022-09-04T11:03:59;7;6;
70255;PMS5003;57669;52.624;-1.688;2022-09-04T11:08:49;7;6;
70255;PMS5003;57669;52.624;-1.688;2022-09-04T11:11:15;8;8;
70255;PMS5003;57669;52.624;-1.688;2022-09-04T11:13:41;5;5;
70255;PMS5003;57669;52.624;-1.688;2022-09-04T11:18:36;6;6;
70255;PMS5003;57669;52.624;-1.688;2022-09-04T11:21:00;7;7;
70255;PMS5003;57669;52.624;-1.688;2022-09-04T11:25:50;11;11;
70255;PMS5003;57669;52.624;-1.688;2022-09-04T11:30:42;5;5;
70255;PMS5003;57669;52.624;-1.688;2022-09-04T11:33:08;5;4;
70255;PMS5003;57669;52.624;-1.688;2022-09-04T11:35:35;6;5;
70255;PMS5003;57669;52.624;-1.688;2022-09-04T11:42:47;6;6;
70255;PMS5003;57669;52.624;-1.688;2022-09-04T11:45:14;5;4;
70255;PMS5003;57669;52.624;-1.688;2022-09-04T11:47:39;8;5;
70255;PMS5003;57669;52.624;-1.688;2022-09-04T11:50:04;5;5;
70255;PMS5003;57669;52.624;-1.688;2022-09-04T11:52:30;6;6;
70255;PMS5003;57669;52.624;-1.688;2022-09-04T11:57:20;5;4;
70255;PMS5003;57669;52.624;-1.688;2022-09-04T12:02:16;4;4;
70255;PMS5003;57669;52.624;-1.688;2022-09-04T12:04:39;2;2;
70255;PMS5003;57669;52.624;-1.688;2022-09-04T12:07:02;5;4;
70255;PMS5003;57669;52.624;-1.688;2022-09-04T12:09:30;4;3;
70255;PMS5003;57669;52.624;-1.688;2022-09-04T12:14:20;4;4;
70255;PMS5003;57669;52.624;-1.688;2022-09-04T12:16:47;6;4;
70255;PMS5003;57669;52.624;-1.688;2022-09-04T12:19:11;5;4;
70255;PMS5003;57669;52.624;-1.688;2022-09-04T12:21:38;2;2;
70255;PMS5003;57669;52.624;-1.688;2022-09-04T12:24:02;5;5;
70255;PMS5003;57669;52.624;-1.688;2022-09-04T12:26:30;5;5;
70255;PMS5003;57669;52.624;-1.688;2022-09-04T12:28:55;5;5;
70255;PMS5003;57669;52.624;-1.688;2022-09-04T12:31:21;6;6;
70255;PMS5003;57669;52.624;-1.688;2022-09-04T12:33:45;5;4;
70255;PMS5003;57669;52.624;-1.688;2022-09-04T12:38:38;6;4;
70255;PMS5003;57669;52.624;-1.688;2022-09-04T12:40:59;4;4;
70255;PMS5003;57669;52.624;-1.688;2022-09-04T12:43:25;6;5;
70255;PMS5003;57669;52.624;-1.688;2022-09-04T12:45:50;5;5;
70255;PMS5003;57669;52.624;-1.688;2022-09-04T12:48:15;4;3;
70255;PMS5003;57669;52.624;-1.688;2022-09-04T12:50:41;5;5;
70255;PMS5003;57669;52.624;-1.688;2022-09-04T12:53:10;6;5;
70255;PMS5003;57669;52.624;-1.688;2022-09-04T12:55:32;9;7;
70255;PMS5003;57669;52.624;-1.688;2022-09-04T12:57:59;5;4;
70255;PMS5003;57669;52.624;-1.688;2022-09-04T13:00:22;4;4;
70255;PMS5003;57669;52.624;-1.688;2022-09-04T13:02:51;7;6;
70255;PMS5003;57669;52.624;-1.688;2022-09-04T13:05:22;4;4;
70255;PMS5003;57669;52.624;-1.688;2022-09-04T13:07:42;5;5;
70255;PMS5003;57669;52.624;-1.688;2022-09-04T13:10:08;3;3;
70255;PMS5003;57669;52.624;-1.688;2022-09-04T13:12:32;4;4;
70255;PMS5003;57669;52.624;-1.688;2022-09-04T13:15:01;5;4;
70255;PMS5003;57669;52.624;-1.688;2022-09-04T13:17:22;4;4;
70255;PMS5003;57669;52.624;-1.688;2022-09-04T13:19:48;5;4;
70255;PMS5003;57669;52.624;-1.688;2022-09-04T13:22:16;5;4;
70255;PMS5003;57669;52.624;-1.688;2022-09-04T13:24:40;5;5;
70255;PMS5003;57669;52.624;-1.688;2022-09-04T13:27:08;3;3;
70255;PMS5003;57669;52.624;-1.688;2022-09-04T13:29:33;5;5;
70255;PMS5003;57669;52.624;-1.688;2022-09-04T13:31:58;3;3;
70255;PMS5003;57669;52.624;-1.688;2022-09-04T13:34:21;6;4;
70255;PMS5003;57669;52.624;-1.688;2022-09-04T13:36:47;4;4;
70255;PMS5003;57669;52.624;-1.688;2022-09-04T13:41:41;4;4;
70255;PMS5003;57669;52.624;-1.688;2022-09-04T13:46:28;4;3;
70255;PMS5003;57669;52.624;-1.688;2022-09-04T13:48:53;4;4;
70255;PMS5003;57669;52.624;-1.688;2022-09-04T13:51:19;6;5;
70255;PMS5003;57669;52.624;-1.688;2022-09-04T13:53:50;3;3;
70255;PMS5003;57669;52.624;-1.688;2022-09-04T13:56:11;1;1;
70255;PMS5003;57669;52.624;-1.688;2022-09-04T13:58:36;2;2;
70255;PMS5003;57669;52.624;-1.688;2022-09-04T14:01:02;2;2;
70255;PMS5003;57669;52.624;-1.688;2022-09-04T14:03:31;2;2;
70255;PMS5003;57669;52.624;-1.688;2022-09-04T14:05:51;3;3;
70255;PMS5003;57669;52.624;-1.688;2022-09-04T14:08:17;3;1;
70255;PMS5003;57669;52.624;-1.688;2022-09-04T14:10:48;5;3;
70255;PMS5003;57669;52.624;-1.688;2022-09-04T14:13:11;4;4;
70255;PMS5003;57669;52.624;-1.688;2022-09-04T14:18:02;6;5;
70255;PMS5003;57669;52.624;-1.688;2022-09-04T14:20:25;8;7;
70255;PMS5003;57669;52.624;-1.688;2022-09-04T14:22:53;5;4;
70255;PMS5003;57669;52.624;-1.688;2022-09-04T14:25:17;4;4;
70255;PMS5003;57669;52.624;-1.688;2022-09-04T14:27:43;7;5;
70255;PMS5003;57669;52.624;-1.688;2022-09-04T14:30:08;7;6;
70255;PMS5003;57669;52.624;-1.688;2022-09-04T14:32:35;6;6;
70255;PMS5003;57669;52.624;-1.688;2022-09-04T14:34:59;4;4;
70255;PMS5003;57669;52.624;-1.688;2022-09-04T14:37:31;4;4;
70255;PMS5003;57669;52.624;-1.688;2022-09-04T14:39:51;5;4;
70255;PMS5003;57669;52.624;-1.688;2022-09-04T14:42:21;6;6;
70255;PMS5003;57669;52.624;-1.688;2022-09-04T14:44:45;6;6;
70255;PMS5003;57669;52.624;-1.688;2022-09-04T14:47:09;5;5;
70255;PMS5003;57669;52.624;-1.688;2022-09-04T14:49:34;8;8;
70255;PMS5003;57669;52.624;-1.688;2022-09-04T14:51:58;6;4;
70255;PMS5003;57669;52.624;-1.688;2022-09-04T14:54:23;7;7;
70255;PMS5003;57669;52.624;-1.688;2022-09-04T14:56:49;5;4;
70255;PMS5003;57669;52.624;-1.688;2022-09-04T14:59:15;7;6;
70255;PMS5003;57669;52.624;-1.688;2022-09-04T15:04:06;4;4;
70255;PMS5003;57669;52.624;-1.688;2022-09-04T15:06:31;5;4;
70255;PMS5003;57669;52.624;-1.688;2022-09-04T15:08:56;7;5;
70255;PMS5003;57669;52.624;-1.688;2022-09-04T15:11:25;5;3;
70255;PMS5003;57669;52.624;-1.688;2022-09-04T15:13:50;7;7;
70255;PMS5003;57669;52.624;-1.688;2022-09-04T15:16:14;5;5;
70255;PMS5003;57669;52.624;-1.688;2022-09-04T15:18:41;5;5;
70255;PMS5003;57669;52.624;-1.688;2022-09-04T15:21:04;7;5;
70255;PMS5003;57669;52.624;-1.688;2022-09-04T15:23:30;5;5;
70255;PMS5003;57669;52.624;-1.688;2022-09-04T15:25:59;9;7;
70255;PMS5003;57669;52.624;-1.688;2022-09-04T15:28:22;5;4;
70255;PMS5003;57669;52.624;-1.688;2022-09-04T15:30:56;2;2;
70255;PMS5003;57669;52.624;-1.688;2022-09-04T15:33:12;4;4;
70255;PMS5003;57669;52.624;-1.688;2022-09-04T15:35:37;4;4;
70255;PMS5003;57669;52.624;-1.688;2022-09-04T15:38:03;3;3;
70255;PMS5003;57669;52.624;-1.688;2022-09-04T15:40:29;3;3;
70255;PMS5003;57669;52.624;-1.688;2022-09-04T15:45:21;3;3;
70255;PMS5003;57669;52.624;-1.688;2022-09-04T15:50:15;4;3;
70255;PMS5003;57669;52.624;-1.688;2022-09-04T15:52:37;3;3;
70255;PMS5003;57669;52.624;-1.688;2022-09-04T15:55:04;5;5;
70255;PMS5003;57669;52.624;-1.688;2022-09-04T15:57:29;3;3;
70255;PMS5003;57669;52.624;-1.688;2022-09-04T15:59:54;3;3;
70255;PMS5003;57669;52.624;-1.688;2022-09-04T16:02:22;4;4;
70255;PMS5003;57669;52.624;-1.688;2022-09-04T16:04:45;6;6;
70255;PMS5003;57669;52.624;-1.688;2022-09-04T16:09:36;4;4;
70255;PMS5003;57669;52.624;-1.688;2022-09-04T16:12:02;8;5;
70255;PMS5003;57669;52.624;-1.688;2022-09-04T16:14:26;6;5;
70255;PMS5003;57669;52.624;-1.688;2022-09-04T16:16:52;6;5;
70255;PMS5003;57669;52.624;-1.688;2022-09-04T16:19:21;8;6;
70255;PMS5003;57669;52.624;-1.688;2022-09-04T16:21:47;7;6;
70255;PMS5003;57669;52.624;-1.688;2022-09-04T16:24:10;6;5;
70255;PMS5003;57669;52.624;-1.688;2022-09-04T16:26:34;5;5;
70255;PMS5003;57669;52.624;-1.688;2022-09-04T16:29:01;5;5;
70255;PMS5003;57669;52.624;-1.688;2022-09-04T16:31:26;5;4;
70255;PMS5003;57669;52.624;-1.688;2022-09-04T16:33:51;12;9;
70255;PMS5003;57669;52.624;-1.688;2022-09-04T16:36:18;5;5;
70255;PMS5003;57669;52.624;-1.688;2022-09-04T16:38:42;5;5;
70255;PMS5003;57669;52.624;-1.688;2022-09-04T16:41:08;5;5;
70255;PMS5003;57669;52.624;-1.688;2022-09-04T16:43:33;6;5;
70255;PMS5003;57669;52.624;-1.688;2022-09-04T16:48:26;6;5;
70255;PMS5003;57669;52.624;-1.688;2022-09-04T16:50:51;4;4;
70255;PMS5003;57669;52.624;-1.688;2022-09-04T16:53:16;6;5;
70255;PMS5003;57669;52.624;-1.688;2022-09-04T16:55:43;6;6;
70255;PMS5003;57669;52.624;-1.688;2022-09-04T17:00:48;5;5;
70255;PMS5003;57669;52.624;-1.688;2022-09-04T17:02:59;4;4;
70255;PMS5003;57669;52.624;-1.688;2022-09-04T17:05:25;5;5;
70255;PMS5003;57669;52.624;-1.688;2022-09-04T17:07:50;4;4;
70255;PMS5003;57669;52.624;-1.688;2022-09-04T17:10:23;8;5;
70255;PMS5003;57669;52.624;-1.688;2022-09-04T17:12:43;9;6;
70255;PMS5003;57669;52.624;-1.688;2022-09-04T17:15:08;5;5;
70255;PMS5003;57669;52.624;-1.688;2022-09-04T17:17:31;6;5;
70255;PMS5003;57669;52.624;-1.688;2022-09-04T17:19:59;6;5;
70255;PMS5003;57669;52.624;-1.688;2022-09-04T17:22:23;6;5;
70255;PMS5003;57669;52.624;-1.688;2022-09-04T17:24:49;6;6;
70255;PMS5003;57669;52.624;-1.688;2022-09-04T17:27:14;9;7;
70255;PMS5003;57669;52.624;-1.688;2022-09-04T17:29:40;7;7;
70255;PMS5003;57669;52.624;-1.688;2022-09-04T17:32:07;7;7;
70255;PMS5003;57669;52.624;-1.688;2022-09-04T17:36:58;7;7;
70255;PMS5003;57669;52.624;-1.688;2022-09-04T17:39:22;9;6;
70255;PMS5003;57669;52.624;-1.688;2022-09-04T17:41:48;7;6;
70255;PMS5003;57669;52.624;-1.688;2022-09-04T17:44:16;5;5;
70255;PMS5003;57669;52.624;-1.688;2022-09-04T17:46:42;7;7;
70255;PMS5003;57669;52.624;-1.688;2022-09-04T17:49:08;7;6;
70255;PMS5003;57669;52.624;-1.688;2022-09-04T17:51:29;6;6;
70255;PMS5003;57669;52.624;-1.688;2022-09-04T17:53:56;9;9;
70255;PMS5003;57669;52.624;-1.688;2022-09-04T17:56:22;7;6;
70255;PMS5003;57669;52.624;-1.688;2022-09-04T17:58:47;7;7;
70255;PMS5003;57669;52.624;-1.688;2022-09-04T18:01:15;8;7;
70255;PMS5003;57669;52.624;-1.688;2022-09-04T18:03:39;6;6;
70255;PMS5003;57669;52.624;-1.688;2022-09-04T18:06:03;6;6;
70255;PMS5003;57669;52.624;-1.688;2022-09-04T18:08:30;9;7;
70255;PMS5003;57669;52.624;-1.688;2022-09-04T18:10:55;6;5;
70255;PMS5003;57669;52.624;-1.688;2022-09-04T18:13:22;8;8;
70255;PMS5003;57669;52.624;-1.688;2022-09-04T18:15:46;8;7;
70255;PMS5003;57669;52.624;-1.688;2022-09-04T18:18:11;6;6;
70255;PMS5003;57669;52.624;-1.688;2022-09-04T18:20:38;11;10;
70255;PMS5003;57669;52.624;-1.688;2022-09-04T18:25:28;6;5;
70255;PMS5003;57669;52.624;-1.688;2022-09-04T18:27:54;7;6;
70255;PMS5003;57669;52.624;-1.688;2022-09-04T18:30:18;6;6;
70255;PMS5003;57669;52.624;-1.688;2022-09-04T18:32:45;8;7;
70255;PMS5003;57669;52.624;-1.688;2022-09-04T18:35:11;6;6;
70255;PMS5003;57669;52.624;-1.688;2022-09-04T18:37:39;8;7;
70255;PMS5003;57669;52.624;-1.688;2022-09-04T18:40:04;6;6;
70255;PMS5003;57669;52.624;-1.688;2022-09-04T18:42:28;8;8;
70255;PMS5003;57669;52.624;-1.688;2022-09-04T18:44:52;9;8;
70255;PMS5003;57669;52.624;-1.688;2022-09-04T18:47:18;8;8;
70255;PMS5003;57669;52.624;-1.688;2022-09-04T18:49:48;8;8;
70255;PMS5003;57669;52.624;-1.688;2022-09-04T18:52:09;8;7;
70255;PMS5003;57669;52.624;-1.688;2022-09-04T18:54:35;7;7;